This is the latest recevied weather packets stored in our database for station/object OE3PDB-10. If no packets are shown the sender has not sent any weather packets the latest 10 day(s).
| Time | Temp. | Humidity | Pressure | Rain* | Wind** | Luminosity | Snow |
|---|---|---|---|---|---|---|---|
| 1777884046 | 22.78° C | 42% | 1111 hPa | 0 mm | - | - | - |
| 1777883446 | 22.78° C | 42% | 1111 hPa | 0 mm | - | - | - |
| 1777882846 | 23.33° C | 42% | 1111 hPa | 0 mm | - | - | - |
| 1777882246 | 23.33° C | 42% | 1111 hPa | 0 mm | - | - | - |
| 1777881646 | 23.89° C | 40% | 1111 hPa | 0 mm | - | - | - |
| 1777881046 | 24.44° C | 41% | 1111 hPa | 0 mm | - | - | - |
| 1777880446 | 23.33° C | 45% | 1111 hPa | 0 mm | - | - | - |
| 1777879846 | 22.78° C | 45% | 1111 hPa | 0 mm | - | - | - |
| 1777879246 | 21.11° C | 49% | 1111 hPa | 0 mm | - | - | - |
| 1777878646 | 19.44° C | 53% | 1111 hPa | 0 mm | - | - | - |
| 1777878046 | 17.22° C | 57% | 1111 hPa | 0 mm | - | - | - |
| 1777877446 | 16.11° C | 57% | 1111 hPa | 0 mm | - | - | - |
| 1777876846 | 15.56° C | 58% | 1111 hPa | 0 mm | - | - | - |
| 1777876246 | 15.56° C | 57% | 1111 hPa | 0 mm | - | - | - |
| 1777875646 | 15.56° C | 58% | 1111 hPa | 0 mm | - | - | - |
| 1777875046 | 14.44° C | 60% | 1111 hPa | 0 mm | - | - | - |
| 1777874446 | 14.44° C | 60% | 1111 hPa | 0 mm | - | - | - |
| 1777873846 | 13.89° C | 62% | 1111 hPa | 0 mm | - | - | - |
| 1777873246 | 13.33° C | 62% | 1111 hPa | 0 mm | - | - | - |
| 1777872646 | 12.78° C | 62% | 1111 hPa | 0 mm | - | - | - |
| 1777872046 | 12.78° C | 62% | 1111 hPa | 0 mm | - | - | - |
| 1777871446 | 12.78° C | 63% | 1111 hPa | 0 mm | - | - | - |
| 1777870847 | 12.22° C | 65% | 1111 hPa | 0 mm | - | - | - |
| 1777870247 | 12.22° C | 64% | 1111 hPa | 0 mm | - | - | - |
| 1777869647 | 11.67° C | 65% | 1111 hPa | 0 mm | - | - | - |
* Rain latest hour (hover to see other rain measurements)
** Current wind speed in m/s (hover to see current wind gust speed)